createdAt,value
2018-10-16T00:02:26.199Z,100831.66
2018-10-16T00:04:59.604Z,100835.89
2018-10-16T00:07:31.299Z,100837.49
2018-10-16T00:10:02.630Z,100845.84
2018-10-16T00:12:34.002Z,100843.28
2018-10-16T00:15:05.375Z,100839.91
2018-10-16T00:17:37.001Z,100845.31
2018-10-16T00:20:09.433Z,100847.03
2018-10-16T00:22:41.611Z,100839.05
2018-10-16T00:25:18.248Z,100848.58
2018-10-16T00:27:49.667Z,100847.77
2018-10-16T00:30:21.208Z,100851.64
2018-10-16T00:32:52.573Z,100856.80
2018-10-16T00:35:24.018Z,100857.37
2018-10-16T00:37:55.372Z,100859.74
2018-10-16T00:40:27.197Z,100854.36
2018-10-16T00:42:58.530Z,100855.52
2018-10-16T00:45:30.587Z,100852.22
2018-10-16T00:48:02.774Z,100857.11
2018-10-16T00:50:34.770Z,100858.92
2018-10-16T00:53:06.452Z,100865.55
2018-10-16T00:55:37.951Z,100856.63
2018-10-16T00:58:09.545Z,100869.31
2018-10-16T01:00:40.866Z,100871.28
2018-10-16T01:03:12.179Z,100870.33
2018-10-16T01:05:43.866Z,100871.06
2018-10-16T01:08:15.210Z,100874.47
2018-10-16T01:10:47.198Z,100878.44
2018-10-16T01:13:18.845Z,100878.34
2018-10-16T01:15:50.228Z,100889.06
2018-10-16T01:18:21.570Z,100884.34
2018-10-16T01:20:53.127Z,100882.11
2018-10-16T01:23:24.470Z,100883.77
2018-10-16T01:25:56.129Z,100879.83
2018-10-16T01:28:27.670Z,100883.20
2018-10-16T01:30:59.384Z,100883.59
2018-10-16T01:33:33.436Z,100880.45
2018-10-16T01:36:05.290Z,100884.33
2018-10-16T01:38:36.566Z,100881.58
2018-10-16T01:41:08.763Z,100881.59
2018-10-16T01:43:41.005Z,100881.94
2018-10-16T01:46:12.329Z,100880.70
2018-10-16T01:48:43.682Z,100876.09
2018-10-16T01:51:15.008Z,100882.52
2018-10-16T01:53:46.305Z,100884.11
2018-10-16T01:56:17.662Z,100882.38
2018-10-16T01:58:49.131Z,100885.86
2018-10-16T02:01:21.226Z,100885.51
2018-10-16T02:03:52.896Z,100884.27
2018-10-16T02:06:24.444Z,100886.48
2018-10-16T02:08:57.562Z,100888.65
2018-10-16T02:11:31.099Z,100888.72
2018-10-16T02:14:03.070Z,100888.49
2018-10-16T02:16:34.403Z,100890.66
2018-10-16T02:19:05.723Z,100890.39
2018-10-16T02:21:37.180Z,100894.81
2018-10-16T02:24:11.086Z,100889.55
2018-10-16T02:26:42.411Z,100894.15
2018-10-16T02:29:13.736Z,100896.48
2018-10-16T02:31:45.041Z,100894.11
2018-10-16T02:34:16.728Z,100901.09
2018-10-16T02:36:48.040Z,100906.47
2018-10-16T02:39:20.548Z,100903.65
2018-10-16T02:41:52.220Z,100905.91
2018-10-16T02:44:23.529Z,100913.92
2018-10-16T02:46:55.168Z,100913.07
2018-10-16T02:49:26.758Z,100911.75
2018-10-16T02:51:58.455Z,100913.45
2018-10-16T02:54:29.816Z,100909.39
2018-10-16T02:57:01.123Z,100915.13
2018-10-16T02:59:32.478Z,100921.83
2018-10-16T03:02:04.284Z,100916.83
2018-10-16T03:04:35.611Z,100919.77
2018-10-16T03:07:07.357Z,100925.41
2018-10-16T03:09:40.265Z,100920.05
2018-10-16T03:12:12.229Z,100920.90
2018-10-16T03:14:44.226Z,100921.72
2018-10-16T03:17:15.824Z,100921.72
2018-10-16T03:19:47.700Z,100922.30
2018-10-16T03:22:19.872Z,100921.09
2018-10-16T03:24:51.619Z,100922.77
2018-10-16T03:27:22.979Z,100920.78
2018-10-16T03:29:54.325Z,100921.83
2018-10-16T03:32:25.647Z,100922.99
2018-10-16T03:34:57.020Z,100928.16
2018-10-16T03:37:28.343Z,100925.20
2018-10-16T03:39:59.717Z,100926.13
2018-10-16T03:42:31.029Z,100931.41
2018-10-16T03:45:02.595Z,100937.84
2018-10-16T03:47:34.007Z,100936.64
2018-10-16T03:50:05.755Z,100942.45
2018-10-16T03:52:37.390Z,100942.45
2018-10-16T03:55:09.161Z,100945.75
2018-10-16T03:57:50.212Z,100951.10
2018-10-16T04:00:23.257Z,100949.78
2018-10-16T04:02:53.508Z,100951.77
2018-10-16T04:05:24.833Z,100947.69
2018-10-16T04:07:56.965Z,100955.98
2018-10-16T04:10:28.280Z,100949.02
2018-10-16T04:12:59.831Z,100954.86
2018-10-16T04:15:31.183Z,100955.91
2018-10-16T04:18:02.809Z,100955.52
2018-10-16T04:20:34.673Z,100958.82
2018-10-16T04:23:06.099Z,100954.52
2018-10-16T04:25:37.408Z,100957.81
2018-10-16T04:28:09.075Z,100957.92
2018-10-16T04:30:40.809Z,100961.88
2018-10-16T04:33:12.591Z,100959.89
2018-10-16T04:35:43.910Z,100962.42
2018-10-16T04:38:16.460Z,100961.69
2018-10-16T04:40:47.993Z,100961.48
2018-10-16T04:43:19.691Z,100961.84
2018-10-16T04:45:51.025Z,100961.22
2018-10-16T04:48:23.341Z,100963.35
2018-10-16T04:50:54.690Z,100961.84
2018-10-16T04:53:27.149Z,100963.35
2018-10-16T04:55:58.484Z,100968.05
2018-10-16T04:58:30.422Z,100973.13
2018-10-16T05:01:01.792Z,100972.58
2018-10-16T05:03:33.474Z,100968.43
2018-10-16T05:06:04.839Z,100968.70
2018-10-16T05:08:36.316Z,100968.98
2018-10-16T05:11:08.156Z,100970.02
2018-10-16T05:13:39.468Z,100973.40
2018-10-16T05:16:10.893Z,100972.81
2018-10-16T05:18:42.312Z,100976.58
2018-10-16T05:21:13.837Z,100973.78
2018-10-16T05:23:45.172Z,100972.81
2018-10-16T05:26:16.881Z,100973.78
2018-10-16T05:28:48.216Z,100977.35
2018-10-16T05:31:20.235Z,100980.45
2018-10-16T05:33:51.440Z,100977.35
2018-10-16T05:36:22.748Z,100969.33
2018-10-16T05:38:54.086Z,100977.23
2018-10-16T05:41:25.423Z,100981.88
2018-10-16T05:43:56.728Z,100982.23
2018-10-16T05:46:28.396Z,100985.14
2018-10-16T05:49:00.070Z,100986.27
2018-10-16T05:51:31.445Z,100985.80
2018-10-16T05:54:03.264Z,100987.39
2018-10-16T05:56:34.583Z,100991.73
2018-10-16T05:59:05.913Z,100994.17
2018-10-16T06:01:37.242Z,100996.42
2018-10-16T06:04:09.067Z,100993.52
2018-10-16T06:06:41.031Z,100997.79
2018-10-16T06:09:12.743Z,101007.02
2018-10-16T06:11:44.175Z,101008.06
2018-10-16T06:14:15.603Z,101011.44
2018-10-16T06:16:48.258Z,101013.30
2018-10-16T06:19:19.582Z,101014.84
2018-10-16T06:21:50.943Z,101018.96
2018-10-16T06:24:22.566Z,101014.34
2018-10-16T06:26:54.324Z,101021.68
2018-10-16T06:29:28.867Z,101022.73
2018-10-16T06:32:00.201Z,101026.02
2018-10-16T06:34:31.804Z,101038.86
2018-10-16T06:37:04.291Z,101039.21
2018-10-16T06:39:36.044Z,101033.39
2018-10-16T06:42:07.572Z,101038.63
2018-10-16T06:44:38.948Z,101036.66
2018-10-16T06:47:14.790Z,101047.01
2018-10-16T06:49:48.142Z,101039.83
2018-10-16T06:52:25.476Z,101042.74
2018-10-16T06:54:59.323Z,101042.16
2018-10-16T06:57:32.895Z,101045.19
2018-10-16T07:00:08.134Z,101045.77
2018-10-16T07:02:43.456Z,101042.83
2018-10-16T07:05:17.547Z,101045.84
2018-10-16T07:07:52.420Z,101051.78
2018-10-16T07:10:28.533Z,101050.08
2018-10-16T07:13:02.822Z,101051.47
2018-10-16T07:15:34.724Z,101051.55
2018-10-16T07:18:06.709Z,101056.78
2018-10-16T07:20:39.235Z,101054.34
2018-10-16T07:23:11.660Z,101056.77
2018-10-16T07:25:43.137Z,101055.84
2018-10-16T07:28:14.838Z,101057.43
2018-10-16T07:30:46.420Z,101058.63
2018-10-16T07:33:19.362Z,101053.16
2018-10-16T07:35:51.271Z,101057.84
2018-10-16T07:38:23.168Z,101063.80
2018-10-16T07:40:54.759Z,101060.09
2018-10-16T07:43:27.268Z,101062.94
2018-10-16T07:45:59.134Z,101068.38
2018-10-16T07:48:30.761Z,101066.70
2018-10-16T07:51:02.386Z,101064.64
2018-10-16T07:53:38.028Z,101061.38
2018-10-16T07:56:10.241Z,101063.48
2018-10-16T07:58:42.218Z,101066.55
2018-10-16T08:01:16.890Z,101070.23
2018-10-16T08:03:48.676Z,101060.08
2018-10-16T08:06:20.522Z,101064.83
2018-10-16T08:08:52.361Z,101063.16
2018-10-16T08:11:24.519Z,101065.00
2018-10-16T08:13:56.373Z,101062.34
2018-10-16T08:16:29.331Z,101066.34
2018-10-16T08:19:02.013Z,101065.41
2018-10-16T08:21:33.856Z,101067.87
2018-10-16T08:24:06.511Z,101055.52
2018-10-16T08:26:38.740Z,101056.75
2018-10-16T08:29:10.921Z,101053.06
2018-10-16T08:31:42.953Z,101056.59
2018-10-16T08:34:15.155Z,101056.02
2018-10-16T08:36:47.177Z,101055.22
2018-10-16T08:39:35.953Z,101058.48
2018-10-16T08:43:05.603Z,101057.91
2018-10-16T08:46:30.776Z,101056.28
2018-10-16T08:49:55.542Z,101061.16
2018-10-16T08:52:28.012Z,101055.78
2018-10-16T08:55:00.449Z,101055.80
2018-10-16T08:57:32.667Z,101056.30
2018-10-16T09:00:04.589Z,101056.41
2018-10-16T09:02:36.661Z,101056.55
2018-10-16T09:05:09.667Z,101059.58
2018-10-16T09:07:41.670Z,101060.64
2018-10-16T09:10:14.017Z,101057.20
2018-10-16T09:12:47.130Z,101054.41
2018-10-16T09:15:22.217Z,101055.83
2018-10-16T09:17:54.717Z,101059.33
2018-10-16T09:20:26.798Z,101062.97
2018-10-16T09:22:58.813Z,101061.63
2018-10-16T09:25:30.910Z,101063.42
2018-10-16T09:28:03.180Z,101062.94
2018-10-16T09:30:34.834Z,101061.56
2018-10-16T09:33:06.179Z,101067.48
2018-10-16T09:35:37.884Z,101068.80
2018-10-16T09:38:09.809Z,101063.84
2018-10-16T09:40:44.226Z,101064.15
2018-10-16T09:43:15.735Z,101068.27
2018-10-16T09:45:47.075Z,101071.45
2018-10-16T09:48:18.407Z,101079.27
2018-10-16T09:50:49.787Z,101081.02
2018-10-16T09:53:21.143Z,101079.12
2018-10-16T09:55:52.477Z,101075.48
2018-10-16T09:58:23.815Z,101073.80
2018-10-16T10:01:12.551Z,101072.56
2018-10-16T10:03:44.081Z,101071.47
2018-10-16T10:06:15.416Z,101070.19
2018-10-16T10:08:46.773Z,101066.69
2018-10-16T10:11:18.259Z,101069.37
2018-10-16T10:13:49.591Z,101065.10
2018-10-16T10:16:20.946Z,101066.73
2018-10-16T10:18:52.379Z,101068.02
2018-10-16T10:21:23.929Z,101064.22
2018-10-16T10:23:55.343Z,101072.88
2018-10-16T10:26:27.879Z,101067.03
2018-10-16T10:28:59.449Z,101063.80
2018-10-16T10:31:31.075Z,101065.27
2018-10-16T10:34:02.639Z,101065.95
2018-10-16T10:36:36.397Z,101063.08
2018-10-16T10:39:12.021Z,101058.83
2018-10-16T10:41:43.781Z,101053.25
2018-10-16T10:44:15.168Z,101058.05
2018-10-16T10:46:46.531Z,101057.09
2018-10-16T10:49:19.644Z,101052.92
2018-10-16T10:51:51.537Z,101051.47
2018-10-16T10:54:24.249Z,101049.25
2018-10-16T10:56:57.371Z,101051.39
2018-10-16T10:59:29.959Z,101047.91
2018-10-16T11:02:02.188Z,101041.73
2018-10-16T11:04:34.243Z,101042.82
2018-10-16T11:07:06.273Z,101039.73
2018-10-16T11:09:38.935Z,101040.63
2018-10-16T11:12:10.804Z,101038.81
2018-10-16T11:14:42.801Z,101037.06
2018-10-16T11:17:15.979Z,101040.27
2018-10-16T11:19:48.159Z,101038.42
2018-10-16T11:22:20.363Z,101033.55
2018-10-16T11:24:52.489Z,101037.82
2018-10-16T11:27:24.993Z,101028.70
2018-10-16T11:29:56.630Z,101032.12
2018-10-16T11:32:28.605Z,101032.20
2018-10-16T11:35:00.018Z,101033.42
2018-10-16T11:37:34.113Z,101025.74
2018-10-16T11:40:05.554Z,101034.66
2018-10-16T11:42:36.939Z,101037.56
2018-10-16T11:45:09.144Z,101040.78
2018-10-16T11:47:40.748Z,101042.02
2018-10-16T11:50:13.039Z,101039.05
2018-10-16T11:52:44.343Z,101039.59
2018-10-16T11:55:15.772Z,101039.92
2018-10-16T11:57:47.105Z,101031.91
2018-10-16T12:00:19.225Z,101031.96
2018-10-16T12:02:50.915Z,101036.35
2018-10-16T12:05:22.203Z,101038.78
2018-10-16T12:07:54.465Z,101035.80
2018-10-16T12:10:25.861Z,101040.50
2018-10-16T12:12:57.168Z,101038.84
2018-10-16T12:15:29.136Z,101038.53
2018-10-16T12:18:17.242Z,101039.05
2018-10-16T12:21:13.478Z,101039.22
2018-10-16T12:23:44.893Z,101044.07
2018-10-16T12:26:19.588Z,101042.00
2018-10-16T12:28:51.076Z,101036.84
2018-10-16T12:31:23.181Z,101032.48
2018-10-16T12:33:58.037Z,101032.81
2018-10-16T12:36:29.411Z,101032.34
2018-10-16T12:39:01.135Z,101032.04
2018-10-16T12:41:32.780Z,101035.27
2018-10-16T12:44:04.121Z,101034.60
2018-10-16T12:46:35.440Z,101037.94
2018-10-16T12:49:09.451Z,101032.04
2018-10-16T12:51:40.846Z,101033.92
2018-10-16T12:54:12.161Z,101032.75
2018-10-16T12:56:43.470Z,101032.75
2018-10-16T12:59:14.901Z,101033.11
2018-10-16T13:01:46.134Z,101031.80
2018-10-16T13:04:17.485Z,101031.48
2018-10-16T13:06:48.809Z,101031.06
2018-10-16T13:09:20.123Z,101034.09
2018-10-16T13:11:51.709Z,101030.14
2018-10-16T13:14:23.051Z,101029.42
2018-10-16T13:16:54.444Z,101030.77
2018-10-16T13:19:27.754Z,101026.75
2018-10-16T13:21:59.109Z,101028.63
2018-10-16T13:24:30.660Z,101032.16
2018-10-16T13:27:02.245Z,101031.88
2018-10-16T13:29:33.780Z,101034.55
2018-10-16T13:32:05.428Z,101031.74
2018-10-16T13:34:36.936Z,101032.42
2018-10-16T13:37:09.353Z,101029.25
2018-10-16T13:39:41.033Z,101025.00
2018-10-16T13:42:12.374Z,101027.86
2018-10-16T13:44:43.859Z,101027.19
2018-10-16T13:47:15.176Z,101020.45
2018-10-16T13:49:46.557Z,101019.77
2018-10-16T13:52:18.057Z,101021.66
2018-10-16T13:54:49.374Z,101018.81
2018-10-16T13:57:21.014Z,101025.38
2018-10-16T13:59:53.632Z,101025.19
2018-10-16T14:02:24.988Z,101023.36
2018-10-16T14:04:56.438Z,101019.17
2018-10-16T14:07:27.860Z,101018.86
2018-10-16T14:09:59.206Z,101016.37
2018-10-16T14:12:30.680Z,101019.92
2018-10-16T14:15:02.038Z,101023.61
2018-10-16T14:17:33.925Z,101024.94
2018-10-16T14:20:05.287Z,101026.28
2018-10-16T14:22:37.458Z,101028.58
2018-10-16T14:25:10.548Z,101032.23
2018-10-16T14:27:42.983Z,101024.81
2018-10-16T14:30:15.680Z,101022.42
2018-10-16T14:32:47.017Z,101031.01
2018-10-16T14:35:18.373Z,101023.09
2018-10-16T14:37:49.976Z,101026.75
2018-10-16T14:40:21.651Z,101021.90
2018-10-16T14:42:53.715Z,101023.23
2018-10-16T14:45:25.258Z,101026.75
2018-10-16T14:47:56.843Z,101021.70
2018-10-16T14:50:28.255Z,101028.25
2018-10-16T14:53:00.098Z,101025.09
2018-10-16T14:55:31.312Z,101018.91
2018-10-16T14:58:02.691Z,101023.95
2018-10-16T15:00:33.954Z,101027.30
2018-10-16T15:03:05.443Z,101024.45
2018-10-16T15:05:37.024Z,101022.82
2018-10-16T15:08:08.514Z,101020.54
2018-10-16T15:10:39.826Z,101018.62
2018-10-16T15:13:15.294Z,101016.91
2018-10-16T15:15:46.777Z,101019.87
2018-10-16T15:18:18.102Z,101017.86
2018-10-16T15:20:49.401Z,101027.21
2018-10-16T15:23:23.304Z,101015.98
2018-10-16T15:25:54.711Z,101022.95
2018-10-16T15:28:26.019Z,101022.77
2018-10-16T15:30:58.099Z,101028.08
2018-10-16T15:33:31.956Z,101027.14
2018-10-16T15:36:04.335Z,101034.77
2018-10-16T15:38:41.297Z,101031.18
2018-10-16T15:41:14.133Z,101031.15
2018-10-16T15:43:48.877Z,101034.41
2018-10-16T15:46:21.360Z,101034.66
2018-10-16T15:48:53.982Z,101030.27
2018-10-16T15:51:25.239Z,101038.41
2018-10-16T15:53:57.364Z,101037.00
2018-10-16T15:56:28.663Z,101036.28
2018-10-16T15:59:00.021Z,101038.91
2018-10-16T16:01:31.748Z,101038.55
2018-10-16T16:04:03.159Z,101042.07
2018-10-16T16:06:34.788Z,101039.04
2018-10-16T16:09:07.263Z,101042.00
2018-10-16T16:11:39.271Z,101040.27
2018-10-16T16:14:10.663Z,101035.66
2018-10-16T16:16:42.320Z,101041.28
2018-10-16T16:19:13.629Z,101040.23
2018-10-16T16:21:44.924Z,101047.19
2018-10-16T16:24:16.333Z,101044.20
2018-10-16T16:26:47.572Z,101049.01
2018-10-16T16:29:19.060Z,101050.41
2018-10-16T16:31:51.040Z,101047.81
2018-10-16T16:34:22.400Z,101047.62
2018-10-16T16:36:54.124Z,101049.14
2018-10-16T16:39:25.907Z,101047.45
2018-10-16T16:41:57.812Z,101048.91
2018-10-16T16:44:29.621Z,101056.17
2018-10-16T16:47:01.000Z,101060.39
2018-10-16T16:49:32.592Z,101063.16
2018-10-16T16:52:03.947Z,101058.79
2018-10-16T16:54:35.686Z,101066.17
2018-10-16T16:57:07.386Z,101067.22
2018-10-16T16:59:39.204Z,101066.83
2018-10-16T17:02:11.042Z,101067.75
2018-10-16T17:04:42.361Z,101070.20
2018-10-16T17:07:13.670Z,101074.96
2018-10-16T17:09:45.141Z,101076.09
2018-10-16T17:12:16.649Z,101076.84
2018-10-16T17:14:47.974Z,101072.20
2018-10-16T17:17:19.333Z,101074.68
2018-10-16T17:19:50.907Z,101076.74
2018-10-16T17:22:22.505Z,101076.42
2018-10-16T17:24:54.047Z,101075.74
2018-10-16T17:27:25.968Z,101074.53
2018-10-16T17:29:57.826Z,101075.55
2018-10-16T17:32:29.159Z,101074.36
2018-10-16T17:35:01.457Z,101081.00
2018-10-16T17:37:33.467Z,101082.34
2018-10-16T17:40:04.906Z,101078.13
2018-10-16T17:42:36.246Z,101077.28
2018-10-16T17:45:08.681Z,101088.76
2018-10-16T17:47:39.888Z,101090.70
2018-10-16T17:50:14.259Z,101094.92
2018-10-16T17:52:45.560Z,101089.61
2018-10-16T17:55:17.458Z,101086.96
2018-10-16T17:57:48.825Z,101092.74
2018-10-16T18:00:20.838Z,101095.16
2018-10-16T18:02:52.300Z,101099.48
2018-10-16T18:05:23.604Z,101092.47
2018-10-16T18:07:55.768Z,101098.52
2018-10-16T18:10:27.174Z,101099.09
2018-10-16T18:12:59.844Z,101102.12
2018-10-16T18:15:31.702Z,101095.71
2018-10-16T18:18:03.840Z,101096.31
2018-10-16T18:20:37.237Z,101101.37
2018-10-16T18:23:09.504Z,101104.40
2018-10-16T18:25:42.081Z,101107.39
2018-10-16T18:28:14.131Z,101108.95
2018-10-16T18:30:46.288Z,101108.12
2018-10-16T18:33:19.171Z,101107.59
2018-10-16T18:35:51.258Z,101103.13
2018-10-16T18:38:23.371Z,101103.27
2018-10-16T18:40:55.608Z,101103.61
2018-10-16T18:43:28.212Z,101099.30
2018-10-16T18:46:01.202Z,101100.14
2018-10-16T18:48:33.943Z,101097.23
2018-10-16T18:51:08.437Z,101104.31
2018-10-16T18:53:40.418Z,101101.64
2018-10-16T18:56:12.702Z,101102.80
2018-10-16T18:58:45.314Z,101106.37
2018-10-16T19:01:17.232Z,101104.55
2018-10-16T19:03:50.674Z,101106.44
2018-10-16T19:06:22.078Z,101104.74
2018-10-16T19:08:54.145Z,101106.29
2018-10-16T19:11:26.381Z,101112.75
2018-10-16T19:13:58.946Z,101111.53
2018-10-16T19:16:31.019Z,101112.95
2018-10-16T19:19:03.207Z,101113.20
2018-10-16T19:21:35.110Z,101113.10
2018-10-16T19:24:06.866Z,101122.59
2018-10-16T19:26:39.546Z,101127.60
2018-10-16T19:29:11.915Z,101121.39
2018-10-16T19:31:44.944Z,101114.22
2018-10-16T19:34:16.875Z,101120.37
2018-10-16T19:36:50.784Z,101119.52
2018-10-16T19:39:22.648Z,101114.34
2018-10-16T19:41:54.547Z,101119.86
2018-10-16T19:44:26.501Z,101119.34
2018-10-16T19:46:58.966Z,101115.80
2018-10-16T19:49:30.621Z,101125.33
2018-10-16T19:52:02.353Z,101125.58
2018-10-16T19:54:34.957Z,101126.77
2018-10-16T19:57:07.637Z,101126.25
2018-10-16T19:59:39.966Z,101126.28
2018-10-16T20:02:11.623Z,101126.62
2018-10-16T20:04:44.257Z,101131.44
2018-10-16T20:07:16.454Z,101128.80
2018-10-16T20:09:48.749Z,101136.22
2018-10-16T20:12:21.015Z,101139.66
2018-10-16T20:14:53.510Z,101137.94
2018-10-16T20:17:26.297Z,101135.97
2018-10-16T20:19:58.931Z,101135.12
2018-10-16T20:22:31.666Z,101135.80
2018-10-16T20:25:06.999Z,101137.83
2018-10-16T20:27:39.930Z,101142.78
2018-10-16T20:30:13.201Z,101136.17
2018-10-16T20:32:48.242Z,101139.47
2018-10-16T20:35:20.905Z,101143.78
2018-10-16T20:37:53.191Z,101138.70
2018-10-16T20:40:25.595Z,101140.02
2018-10-16T20:42:58.019Z,101141.20
2018-10-16T20:45:30.558Z,101139.56
2018-10-16T20:48:02.772Z,101142.81
2018-10-16T20:50:38.090Z,101143.78
2018-10-16T20:53:10.160Z,101146.30
2018-10-16T20:55:51.442Z,101140.91
2018-10-16T20:58:23.519Z,101138.06
2018-10-16T21:00:56.182Z,101140.34
2018-10-16T21:03:28.237Z,101143.66
2018-10-16T21:06:00.778Z,101140.58
2018-10-16T21:08:32.580Z,101146.65
2018-10-16T21:11:04.828Z,101149.67
2018-10-16T21:13:37.514Z,101147.97
2018-10-16T21:16:09.680Z,101144.00
2018-10-16T21:18:42.118Z,101146.50
2018-10-16T21:21:13.861Z,101144.64
2018-10-16T21:23:57.087Z,101145.98
2018-10-16T21:26:18.613Z,101143.94
2018-10-16T21:28:50.699Z,101133.23
2018-10-16T21:31:23.621Z,101134.36
2018-10-16T21:33:55.778Z,101134.70
2018-10-16T21:36:27.842Z,101126.38
2018-10-16T22:10:35.980Z,101124.50
2018-10-16T23:16:16.108Z,101101.67
2018-10-16T23:57:57.517Z,101101.20
